메인 페이지
METAR-TAF:

METAR-TAF

공항 :

이바라키 공항, 일본

위도: 36-11N, 경도: 140-25E, 고도: 32m

현재 날씨관측

예보는 35분 전, 10:00시(UTC)에 발표되었습니다.
북북동2kt
온도 0°C
습도 59%
기압 1027 hPa
시정 10km 이상
고도 4000ft 상공 구름 조금

METAR: RJAH 151000Z 03002KT 9999 FEW040 00/M07 Q1027

시각: 19:35 (10:35 UTC)

예보

예보는 5 시간 30분 전, 05:05시(UTC)에 발표되었습니다.
예보 대상 시간: 15일 06시부터 16일 12시까지 (UTC)
북동5kt
시정 10km 이상
고도 3000ft 상공 구름 조금
전환 중
16일 00시부터 16일 03시까지 (UTC)
남서5kt
전환 중
16일 06시부터 16일 09시까지 (UTC)
북북서4kt

TAF: RJAH 150505Z 1506/1612 04005KT 9999 FEW030 BECMG 1600/1603 22005KT BECMG 1606/1609 34004KT

4,000개 이상의 공항 관측 자료 및 예보 (METAR 및 TAF 보고).

지도상에서 검색 가능한 기상관측소가 노란 점과 빨간 점으로 표시되어 있습니다.

기상관측소 명을 보려면 표시 위로 마우스를 이동하세요.

날씨 관측과 예보를 보려면 클릭하세요.

지도 변경 : 확대하려면 엑스 표시가 있는 녹색 버튼, 축소하려면 빼기 표시가 있는 녹색 버튼, 다음 페이지의 지도를 보려면 녹색 화살표를 클릭하세요.


METAR-TAF: